createdAt,value
2018-08-12T00:00:21.539Z,10.09
2018-08-12T00:01:21.442Z,10.07
2018-08-12T00:02:21.349Z,10.04
2018-08-12T00:03:21.267Z,10.06
2018-08-12T00:04:21.159Z,10.02
2018-08-12T00:05:21.068Z,10.01
2018-08-12T00:06:20.973Z,10.07
2018-08-12T00:07:20.876Z,10.11
2018-08-12T00:08:20.786Z,10.04
2018-08-12T00:09:20.716Z,10.17
2018-08-12T00:10:20.598Z,10.11
2018-08-12T00:11:20.505Z,10.20
2018-08-12T00:12:20.409Z,10.31
2018-08-12T00:13:20.319Z,10.39
2018-08-12T00:14:20.239Z,10.38
2018-08-12T00:15:20.155Z,10.43
2018-08-12T00:16:20.033Z,10.39
2018-08-12T00:17:19.940Z,10.35
2018-08-12T00:18:19.850Z,10.43
2018-08-12T00:19:19.769Z,10.43
2018-08-12T00:20:19.661Z,10.51
2018-08-12T00:21:19.663Z,10.38
2018-08-12T00:22:19.476Z,10.51
2018-08-12T00:23:19.380Z,10.46
2018-08-12T00:24:19.302Z,10.46
2018-08-12T00:25:19.188Z,10.46
2018-08-12T00:26:19.093Z,10.43
2018-08-12T00:27:18.999Z,10.32
2018-08-12T00:28:19.009Z,10.35
2018-08-12T00:29:18.830Z,10.38
2018-08-12T00:30:18.720Z,10.38
2018-08-12T00:31:18.627Z,10.42
2018-08-12T00:32:18.538Z,10.38
2018-08-12T00:33:18.437Z,10.42
2018-08-12T00:34:18.360Z,10.36
2018-08-12T00:35:18.250Z,10.36
2018-08-12T00:36:18.157Z,10.43
2018-08-12T00:37:18.064Z,10.43
2018-08-12T00:38:17.969Z,10.42
2018-08-12T00:39:17.892Z,10.46
2018-08-12T00:40:17.780Z,10.42
2018-08-12T00:41:17.688Z,10.32
2018-08-12T00:42:17.693Z,10.44
2018-08-12T00:43:17.497Z,10.47
2018-08-12T00:44:17.422Z,10.51
2018-08-12T00:45:17.309Z,10.54
2018-08-12T00:46:17.218Z,10.60
2018-08-12T00:47:17.124Z,10.63
2018-08-12T00:48:17.027Z,10.63
2018-08-12T00:49:17.059Z,10.80
2018-08-12T00:50:16.840Z,10.73
2018-08-12T00:51:16.746Z,10.81
2018-08-12T00:52:16.651Z,10.94
2018-08-12T00:53:16.560Z,10.91
2018-08-12T00:54:16.481Z,10.98
2018-08-12T00:55:16.369Z,10.94
2018-08-12T00:56:16.375Z,10.94
2018-08-12T00:57:16.180Z,11.08
2018-08-12T00:58:16.089Z,11.12
2018-08-12T00:59:16.013Z,11.16
2018-08-12T01:00:15.899Z,11.28
2018-08-12T01:01:15.805Z,11.31
2018-08-12T01:02:15.710Z,11.21
2018-08-12T01:03:15.717Z,11.30
2018-08-12T01:04:15.539Z,11.17
2018-08-12T01:05:15.430Z,11.19
2018-08-12T01:06:15.339Z,11.03
2018-08-12T01:07:15.242Z,10.95
2018-08-12T01:08:15.151Z,11.01
2018-08-12T01:09:15.070Z,11.01
2018-08-12T01:10:15.061Z,11.06
2018-08-12T01:11:14.866Z,11.11
2018-08-12T01:12:14.774Z,11.24
2018-08-12T01:13:14.684Z,11.36
2018-08-12T01:14:14.603Z,11.42
2018-08-12T01:15:14.496Z,11.57
2018-08-12T01:16:14.397Z,11.54
2018-08-12T01:17:14.403Z,11.60
2018-08-12T01:18:14.212Z,11.72
2018-08-12T01:19:14.131Z,11.69
2018-08-12T01:20:14.023Z,11.88
2018-08-12T01:21:13.930Z,12.11
2018-08-12T01:22:13.836Z,12.11
2018-08-12T01:23:13.748Z,12.38
2018-08-12T01:24:13.778Z,12.58
2018-08-12T01:25:13.551Z,12.62
2018-08-12T01:26:13.460Z,12.70
2018-08-12T01:27:13.364Z,12.67
2018-08-12T01:28:13.275Z,12.51
2018-08-12T01:29:13.198Z,12.37
2018-08-12T01:30:13.093Z,12.23
2018-08-12T01:31:13.090Z,12.18
2018-08-12T01:32:12.897Z,12.30
2018-08-12T01:33:12.803Z,12.36
2018-08-12T01:34:12.727Z,12.40
2018-08-12T01:35:12.615Z,12.46
2018-08-12T01:36:12.523Z,12.61
2018-08-12T01:37:12.428Z,12.67
2018-08-12T01:38:12.434Z,12.69
2018-08-12T01:39:12.260Z,12.94
2018-08-12T01:40:12.148Z,12.87
2018-08-12T01:41:12.058Z,12.91
2018-08-12T01:42:11.961Z,12.95
2018-08-12T01:43:11.867Z,13.01
2018-08-12T01:44:11.791Z,13.10
2018-08-12T01:45:11.800Z,13.06
2018-08-12T01:46:11.590Z,13.16
2018-08-12T01:47:11.494Z,13.19
2018-08-12T01:48:11.400Z,13.06
2018-08-12T01:49:11.328Z,13.32
2018-08-12T01:50:11.217Z,13.24
2018-08-12T01:51:11.123Z,13.28
2018-08-12T01:52:11.027Z,13.28
2018-08-12T01:53:10.935Z,13.27
2018-08-12T01:54:10.860Z,13.22
2018-08-12T01:55:10.765Z,13.21
2018-08-12T01:56:10.659Z,13.09
2018-08-12T01:57:10.562Z,13.06
2018-08-12T01:58:10.469Z,13.03
2018-08-12T01:59:10.379Z,13.04
2018-08-12T02:00:10.303Z,13.03
2018-08-12T02:01:10.188Z,13.01
2018-08-12T02:02:10.099Z,12.98
2018-08-12T02:03:10.004Z,12.94
2018-08-12T02:04:09.915Z,12.91
2018-08-12T02:05:09.837Z,12.89
2018-08-12T02:06:09.722Z,13.01
2018-08-12T02:07:09.628Z,13.01
2018-08-12T02:08:09.536Z,13.12
2018-08-12T02:09:09.448Z,13.06
2018-08-12T02:10:09.368Z,13.10
2018-08-12T02:11:09.260Z,13.09
2018-08-12T02:12:09.165Z,12.94
2018-08-12T02:13:09.070Z,12.95
2018-08-12T02:14:08.979Z,12.80
2018-08-12T02:15:08.900Z,12.77
2018-08-12T02:16:08.793Z,12.62
2018-08-12T02:17:08.701Z,12.55
2018-08-12T02:18:08.605Z,12.36
2018-08-12T02:19:08.512Z,12.30
2018-08-12T02:20:08.436Z,12.08
2018-08-12T02:21:08.326Z,11.94
2018-08-12T02:22:08.233Z,11.82
2018-08-12T02:23:08.139Z,11.79
2018-08-12T02:24:08.047Z,11.78
2018-08-12T02:25:07.970Z,11.67
2018-08-12T02:26:07.860Z,11.78
2018-08-12T02:27:07.766Z,11.77
2018-08-12T02:28:07.673Z,12.07
2018-08-12T02:29:07.582Z,12.13
2018-08-12T02:30:07.505Z,12.29
2018-08-12T02:31:07.392Z,12.44
2018-08-12T02:32:07.301Z,12.48
2018-08-12T02:33:07.207Z,12.58
2018-08-12T02:34:07.117Z,12.70
2018-08-12T02:35:07.036Z,12.70
2018-08-12T02:36:06.927Z,12.81
2018-08-12T02:37:06.835Z,12.91
2018-08-12T02:38:06.744Z,12.88
2018-08-12T02:39:06.649Z,12.91
2018-08-12T02:40:06.569Z,13.03
2018-08-12T02:41:06.460Z,13.12
2018-08-12T02:42:06.373Z,13.17
2018-08-12T02:43:06.277Z,13.06
2018-08-12T02:44:06.179Z,13.06
2018-08-12T02:45:06.105Z,12.99
2018-08-12T02:46:05.996Z,13.01
2018-08-12T02:47:05.902Z,13.01
2018-08-12T02:48:05.807Z,12.98
2018-08-12T02:49:05.714Z,13.13
2018-08-12T02:50:05.637Z,13.17
2018-08-12T02:51:05.532Z,13.35
2018-08-12T02:52:05.434Z,13.53
2018-08-12T02:53:05.341Z,13.62
2018-08-12T02:54:05.249Z,13.62
2018-08-12T02:55:05.170Z,13.55
2018-08-12T02:56:05.064Z,13.51
2018-08-12T02:57:04.970Z,13.50
2018-08-12T02:58:04.878Z,13.59
2018-08-12T02:59:04.784Z,13.66
2018-08-12T03:00:04.714Z,13.81
2018-08-12T03:01:04.597Z,13.72
2018-08-12T03:02:04.504Z,13.68
2018-08-12T03:03:04.410Z,13.72
2018-08-12T03:04:04.318Z,13.69
2018-08-12T03:05:04.242Z,13.62
2018-08-12T03:06:04.149Z,13.73
2018-08-12T03:07:04.039Z,13.69
2018-08-12T03:08:04.045Z,13.69
2018-08-12T03:09:03.853Z,13.69
2018-08-12T03:10:03.780Z,13.65
2018-08-12T03:11:03.666Z,13.59
2018-08-12T03:12:03.575Z,13.65
2018-08-12T03:13:03.483Z,13.51
2018-08-12T03:14:03.394Z,13.62
2018-08-12T03:15:03.312Z,13.59
2018-08-12T03:16:03.217Z,13.63
2018-08-12T03:17:03.109Z,13.76
2018-08-12T03:18:03.016Z,13.83
2018-08-12T03:19:02.922Z,13.79
2018-08-12T03:20:02.847Z,13.86
2018-08-12T03:21:02.736Z,13.72
2018-08-12T03:22:02.744Z,13.83
2018-08-12T03:23:02.551Z,13.80
2018-08-12T03:24:02.460Z,13.79
2018-08-12T03:25:02.385Z,13.80
2018-08-12T03:26:02.280Z,13.88
2018-08-12T03:27:02.182Z,13.90
2018-08-12T03:28:02.095Z,13.96
2018-08-12T03:29:02.093Z,14.02
2018-08-12T03:30:02.037Z,14.12
2018-08-12T03:31:01.810Z,14.08
2018-08-12T03:32:01.719Z,14.17
2018-08-12T03:33:01.623Z,14.11
2018-08-12T03:34:01.529Z,14.11
2018-08-12T03:35:01.451Z,14.01
2018-08-12T03:36:01.464Z,14.04
2018-08-12T03:37:01.250Z,13.96
2018-08-12T03:38:01.159Z,13.90
2018-08-12T03:39:01.065Z,13.87
2018-08-12T03:40:00.991Z,13.71
2018-08-12T03:41:00.883Z,13.69
2018-08-12T03:42:00.788Z,13.69
2018-08-12T03:43:00.797Z,13.63
2018-08-12T03:44:00.603Z,13.66
2018-08-12T03:45:00.511Z,13.71
2018-08-12T03:46:00.434Z,13.69
2018-08-12T03:47:00.339Z,13.73
2018-08-12T03:48:00.229Z,13.93
2018-08-12T03:49:00.147Z,13.88
2018-08-12T03:50:00.155Z,13.91
2018-08-12T03:50:59.968Z,13.93
2018-08-12T03:51:59.861Z,13.90
2018-08-12T03:52:59.766Z,13.84
2018-08-12T03:53:59.675Z,13.79
2018-08-12T03:54:59.583Z,13.72
2018-08-12T03:55:59.507Z,13.72
2018-08-12T03:56:59.511Z,13.84
2018-08-12T03:57:59.304Z,13.73
2018-08-12T03:58:59.215Z,13.84
2018-08-12T03:59:59.119Z,13.87
2018-08-12T04:00:59.047Z,13.73
2018-08-12T04:01:58.934Z,13.96
2018-08-12T04:02:58.838Z,13.96
2018-08-12T04:03:58.846Z,13.87
2018-08-12T04:04:58.653Z,13.91
2018-08-12T04:05:58.580Z,13.87
2018-08-12T04:06:58.467Z,14.01
2018-08-12T04:07:58.376Z,14.01
2018-08-12T04:08:58.283Z,13.96
2018-08-12T04:09:58.192Z,14.16
2018-08-12T04:10:58.218Z,14.08
2018-08-12T04:11:58.003Z,14.08
2018-08-12T04:12:57.912Z,14.09
2018-08-12T04:13:57.821Z,14.16
2018-08-12T04:14:57.725Z,14.06
2018-08-12T04:15:57.652Z,14.09
2018-08-12T04:16:57.541Z,14.24
2018-08-12T04:17:57.541Z,14.09
2018-08-12T04:18:57.362Z,14.11
2018-08-12T04:19:57.262Z,14.16
2018-08-12T04:20:57.193Z,14.24
2018-08-12T04:21:57.078Z,14.21
2018-08-12T04:22:56.985Z,14.20
2018-08-12T04:23:56.890Z,14.21
2018-08-12T04:24:56.899Z,14.21
2018-08-12T04:25:56.729Z,14.20
2018-08-12T04:26:56.616Z,14.06
2018-08-12T04:27:56.524Z,14.20
2018-08-12T04:28:56.432Z,14.23
2018-08-12T04:29:56.337Z,14.23
2018-08-12T04:30:56.266Z,14.09
2018-08-12T04:31:56.250Z,14.19
2018-08-12T04:32:56.057Z,14.09
2018-08-12T04:33:55.969Z,14.12
2018-08-12T04:34:55.873Z,14.13
2018-08-12T04:35:55.797Z,14.17
2018-08-12T04:36:55.689Z,14.13
2018-08-12T04:37:55.598Z,14.11
2018-08-12T04:38:55.506Z,14.16
2018-08-12T04:39:55.412Z,14.17
2018-08-12T04:40:55.334Z,14.09
2018-08-12T04:41:55.229Z,14.09
2018-08-12T04:42:55.132Z,14.17
2018-08-12T04:43:55.044Z,14.21
2018-08-12T04:44:54.952Z,14.30
2018-08-12T04:45:55.032Z,14.35
2018-08-12T04:46:54.765Z,14.39
2018-08-12T04:47:54.670Z,14.48
2018-08-12T04:48:54.579Z,14.48
2018-08-12T04:49:54.492Z,14.45
2018-08-12T04:50:54.410Z,14.46
2018-08-12T04:51:54.431Z,14.52
2018-08-12T04:52:54.210Z,14.42
2018-08-12T04:53:54.121Z,14.56
2018-08-12T04:54:54.027Z,14.59
2018-08-12T04:55:53.951Z,14.56
2018-08-12T04:56:53.841Z,14.67
2018-08-12T04:57:53.752Z,14.67
2018-08-12T04:58:53.656Z,14.66
2018-08-12T04:59:53.564Z,14.71
2018-08-12T05:00:53.486Z,14.75
2018-08-12T05:01:53.381Z,14.80
2018-08-12T05:02:53.286Z,14.79
2018-08-12T05:03:53.197Z,14.94
2018-08-12T05:04:53.103Z,15.04
2018-08-12T05:05:53.031Z,15.13
2018-08-12T05:06:52.917Z,15.20
2018-08-12T05:07:52.828Z,15.16
2018-08-12T05:08:52.735Z,15.19
2018-08-12T05:09:52.642Z,15.23
2018-08-12T05:10:52.567Z,15.20
2018-08-12T05:11:52.461Z,15.19
2018-08-12T05:12:52.368Z,15.23
2018-08-12T05:13:52.276Z,15.19
2018-08-12T05:14:52.184Z,15.27
2018-08-12T05:15:52.108Z,15.20
2018-08-12T05:16:52.001Z,15.22
2018-08-12T05:17:51.911Z,15.22
2018-08-12T05:18:51.821Z,15.18
2018-08-12T05:19:51.728Z,15.38
2018-08-12T05:20:51.649Z,15.31
2018-08-12T05:21:51.542Z,15.31
2018-08-12T05:22:51.506Z,15.35
2018-08-12T05:23:51.358Z,15.44
2018-08-12T05:24:51.265Z,15.48
2018-08-12T05:25:51.192Z,15.67
2018-08-12T05:26:51.083Z,15.58
2018-08-12T05:27:50.993Z,15.60
2018-08-12T05:28:50.904Z,15.70
2018-08-12T05:29:50.809Z,15.70
2018-08-12T05:30:50.722Z,15.78
2018-08-12T05:31:50.648Z,15.74
2018-08-12T05:32:50.538Z,15.84
2018-08-12T05:33:50.444Z,15.78
2018-08-12T05:34:50.353Z,15.93
2018-08-12T05:35:50.262Z,15.93
2018-08-12T05:36:50.186Z,15.96
2018-08-12T05:37:50.078Z,16.06
2018-08-12T05:38:50.002Z,16.07
2018-08-12T05:39:49.897Z,16.10
2018-08-12T05:40:49.811Z,16.06
2018-08-12T05:41:49.732Z,16.16
2018-08-12T05:42:49.621Z,16.14
2018-08-12T05:43:49.531Z,16.22
2018-08-12T05:44:49.438Z,16.23
2018-08-12T05:45:49.356Z,16.16
2018-08-12T05:46:49.275Z,16.25
2018-08-12T05:47:49.165Z,16.18
2018-08-12T05:48:49.075Z,16.18
2018-08-12T05:49:48.984Z,16.17
2018-08-12T05:50:48.894Z,16.26
2018-08-12T05:51:48.820Z,16.29
2018-08-12T05:52:48.719Z,16.30
2018-08-12T05:53:48.621Z,16.34
2018-08-12T05:54:48.528Z,16.40
2018-08-12T05:55:48.439Z,16.40
2018-08-12T05:56:48.370Z,16.51
2018-08-12T05:57:48.261Z,16.50
2018-08-12T05:58:48.165Z,16.52
2018-08-12T05:59:48.075Z,16.50
2018-08-12T06:00:47.984Z,16.57
2018-08-12T06:01:47.910Z,16.54
2018-08-12T06:02:47.816Z,16.60
2018-08-12T06:03:47.715Z,16.66
2018-08-12T06:04:47.623Z,16.72
2018-08-12T06:05:47.569Z,16.66
2018-08-12T06:06:47.454Z,16.80
2018-08-12T06:07:47.353Z,16.78
2018-08-12T06:08:47.335Z,16.90
2018-08-12T06:09:47.168Z,16.87
2018-08-12T06:10:47.077Z,16.84
2018-08-12T06:11:47.004Z,17.00
2018-08-12T06:12:46.899Z,16.87
2018-08-12T06:13:46.806Z,16.92
2018-08-12T06:14:46.715Z,16.99
2018-08-12T06:15:46.626Z,17.03
2018-08-12T06:16:46.947Z,17.09
2018-08-12T06:17:46.445Z,16.95
2018-08-12T06:18:46.357Z,17.02
2018-08-12T06:19:46.262Z,16.99
2018-08-12T06:20:46.187Z,17.09
2018-08-12T06:21:46.098Z,17.05
2018-08-12T06:22:45.995Z,17.24
2018-08-12T06:23:45.999Z,17.22
2018-08-12T06:24:45.811Z,17.21
2018-08-12T06:25:45.789Z,17.14
2018-08-12T06:26:45.650Z,17.18
2018-08-12T06:27:45.545Z,17.22
2018-08-12T06:28:45.453Z,17.22
2018-08-12T06:29:45.366Z,17.27
2018-08-12T06:30:45.390Z,17.39
2018-08-12T06:31:45.201Z,17.39
2018-08-12T06:32:45.093Z,17.38
2018-08-12T06:33:45.008Z,17.43
2018-08-12T06:34:44.912Z,17.45
2018-08-12T06:35:44.824Z,17.43
2018-08-12T06:36:44.750Z,17.49
2018-08-12T06:37:44.741Z,17.57
2018-08-12T06:38:44.551Z,17.57
2018-08-12T06:39:44.468Z,17.55
2018-08-12T06:40:44.379Z,17.53
2018-08-12T06:41:44.300Z,17.53
2018-08-12T06:42:44.193Z,17.54
2018-08-12T06:43:44.105Z,17.51
2018-08-12T06:44:44.113Z,17.55
2018-08-12T06:45:43.930Z,17.62
2018-08-12T06:46:43.850Z,17.70
2018-08-12T06:47:43.746Z,17.83
2018-08-12T06:48:43.658Z,17.96
2018-08-12T06:49:43.568Z,18.10
2018-08-12T06:50:43.480Z,18.23
2018-08-12T06:51:43.586Z,18.36
2018-08-12T06:52:43.299Z,18.59
2018-08-12T06:53:43.210Z,18.62
2018-08-12T06:54:43.122Z,18.76
2018-08-12T06:55:43.033Z,18.84
2018-08-12T06:56:42.961Z,18.57
2018-08-12T06:57:42.854Z,18.69
2018-08-12T06:58:42.864Z,18.71
2018-08-12T06:59:42.679Z,18.93
2018-08-12T07:00:42.589Z,19.02
2018-08-12T07:01:42.517Z,19.16
2018-08-12T07:02:42.413Z,19.06
2018-08-12T07:03:42.330Z,19.09
2018-08-12T07:04:42.235Z,19.20
2018-08-12T07:05:42.253Z,19.24
2018-08-12T07:06:42.076Z,19.09
2018-08-12T07:07:41.973Z,19.07
2018-08-12T07:08:41.885Z,19.05
2018-08-12T07:09:41.797Z,19.13
2018-08-12T07:10:41.710Z,19.09
2018-08-12T07:11:41.639Z,19.24
2018-08-12T07:12:41.632Z,19.21
2018-08-12T07:13:41.464Z,19.28
2018-08-12T07:14:41.358Z,19.35
2018-08-12T07:15:41.274Z,19.45
2018-08-12T07:16:41.188Z,19.16
2018-08-12T07:17:41.116Z,19.34
2018-08-12T07:18:41.011Z,19.34
2018-08-12T07:19:41.031Z,19.52
2018-08-12T07:20:40.838Z,19.65
2018-08-12T07:21:40.755Z,19.57
2018-08-12T07:22:40.680Z,19.72
2018-08-12T07:23:40.580Z,20.04
2018-08-12T07:24:40.551Z,20.20
2018-08-12T07:25:40.405Z,20.40
2018-08-12T07:26:40.421Z,20.42
2018-08-12T07:27:40.249Z,20.60
2018-08-12T07:28:40.151Z,20.75
2018-08-12T07:29:40.063Z,21.00
2018-08-12T07:30:39.970Z,20.91
2018-08-12T07:31:39.889Z,20.79
2018-08-12T07:32:39.921Z,20.83
2018-08-12T07:33:39.720Z,20.57
2018-08-12T07:34:39.627Z,20.72
2018-08-12T07:35:39.546Z,20.64
2018-08-12T07:36:39.458Z,20.56
2018-08-12T07:37:39.388Z,20.68
2018-08-12T07:38:39.319Z,20.79
2018-08-12T07:39:39.200Z,20.97
2018-08-12T07:40:39.114Z,20.87
2018-08-12T07:41:39.029Z,21.19
2018-08-12T07:42:38.962Z,21.06
2018-08-12T07:43:38.858Z,20.71
2018-08-12T07:44:38.776Z,20.96
2018-08-12T07:45:38.691Z,21.05
2018-08-12T07:46:38.604Z,21.15
2018-08-12T07:47:38.531Z,21.31
2018-08-12T07:48:38.443Z,21.53
2018-08-12T07:49:38.348Z,21.68
2018-08-12T07:50:38.263Z,21.81
2018-08-12T07:51:38.180Z,21.93
2018-08-12T07:52:38.112Z,21.98
2018-08-12T07:53:38.009Z,21.77
2018-08-12T07:54:37.921Z,21.91
2018-08-12T07:55:37.934Z,22.19
2018-08-12T07:56:37.753Z,21.73
2018-08-12T07:57:37.726Z,21.64
2018-08-12T07:58:37.589Z,21.82
2018-08-12T07:59:37.498Z,21.98
2018-08-12T08:00:37.415Z,21.94
2018-08-12T08:01:37.336Z,22.02
2018-08-12T08:02:37.266Z,21.77
2018-08-12T08:03:37.162Z,21.52
2018-08-12T08:04:37.079Z,21.96
2018-08-12T08:05:36.996Z,21.99
2018-08-12T08:06:36.907Z,22.01
2018-08-12T08:07:36.838Z,22.24
2018-08-12T08:08:36.756Z,21.82
2018-08-12T08:09:36.658Z,21.98
2018-08-12T08:10:36.576Z,21.94
2018-08-12T08:11:36.491Z,22.05
2018-08-12T08:12:36.434Z,22.19
2018-08-12T08:13:36.322Z,22.20
2018-08-12T08:14:36.234Z,22.14
2018-08-12T08:15:36.152Z,22.14
2018-08-12T08:16:36.068Z,22.46
2018-08-12T08:17:36.001Z,22.02
2018-08-12T08:18:35.898Z,21.94
2018-08-12T08:19:35.833Z,21.98
2018-08-12T08:20:35.731Z,22.29
2018-08-12T08:21:35.649Z,21.91
2018-08-12T08:22:35.583Z,22.08
2018-08-12T08:23:35.485Z,22.56
2018-08-12T08:24:35.399Z,22.79
2018-08-12T08:25:35.397Z,23.39
2018-08-12T08:26:35.230Z,23.42
2018-08-12T08:27:35.164Z,23.63
2018-08-12T08:28:35.063Z,23.79
2018-08-12T08:29:34.982Z,24.00
2018-08-12T08:30:34.897Z,23.77
2018-08-12T08:31:34.855Z,23.26
2018-08-12T08:32:34.749Z,23.11
2018-08-12T08:33:34.651Z,23.53
2018-08-12T08:34:34.567Z,23.54
2018-08-12T08:35:34.483Z,23.22
2018-08-12T08:36:34.398Z,23.50
2018-08-12T08:37:34.331Z,23.60
2018-08-12T08:38:34.234Z,24.06
2018-08-12T08:39:34.149Z,24.29
2018-08-12T08:40:34.068Z,24.27
2018-08-12T08:41:33.985Z,24.41
2018-08-12T08:42:33.920Z,24.56
2018-08-12T08:43:33.819Z,24.55
2018-08-12T08:44:33.741Z,24.34
2018-08-12T08:45:33.656Z,24.67
2018-08-12T08:46:33.573Z,24.18
2018-08-12T08:47:33.507Z,24.39
2018-08-12T08:48:33.410Z,24.82
2018-08-12T08:49:33.326Z,25.23
2018-08-12T08:50:33.286Z,25.26
2018-08-12T08:51:33.212Z,25.56
2018-08-12T08:52:33.098Z,25.81
2018-08-12T08:53:33.016Z,25.39
2018-08-12T08:54:32.922Z,24.90
2018-08-12T08:55:32.867Z,24.68
2018-08-12T08:56:32.855Z,24.87
2018-08-12T08:57:32.690Z,24.08
2018-08-12T08:58:32.591Z,23.54
2018-08-12T08:59:32.512Z,23.19
2018-08-12T09:00:32.436Z,23.16
2018-08-12T09:01:32.348Z,23.72
2018-08-12T09:02:32.284Z,24.04
2018-08-12T09:03:32.284Z,24.37
2018-08-12T09:04:32.106Z,24.77
2018-08-12T09:05:32.022Z,24.99
2018-08-12T09:06:31.940Z,25.26
2018-08-12T09:07:31.863Z,24.71
2018-08-12T09:08:32.169Z,24.46
2018-08-12T09:09:31.697Z,24.71
2018-08-12T09:10:31.711Z,24.24
2018-08-12T09:11:31.535Z,24.53
2018-08-12T09:12:31.460Z,24.98
2018-08-12T09:13:31.391Z,25.53
2018-08-12T09:14:31.292Z,25.41
2018-08-12T09:15:31.208Z,25.05
2018-08-12T09:16:31.126Z,25.29
2018-08-12T09:17:31.167Z,24.99
2018-08-12T09:18:30.979Z,25.01
2018-08-12T09:19:30.885Z,24.97
2018-08-12T09:20:30.805Z,25.11
2018-08-12T09:21:30.724Z,25.14
2018-08-12T09:22:30.643Z,25.26
2018-08-12T09:23:30.576Z,25.16
2018-08-12T09:24:30.480Z,24.92
2018-08-12T09:25:30.422Z,25.08
2018-08-12T09:26:30.321Z,25.24
2018-08-12T09:27:30.237Z,25.53
2018-08-12T09:28:30.187Z,25.83
2018-08-12T09:29:30.073Z,25.71
2018-08-12T09:30:29.994Z,25.79
2018-08-12T09:31:30.012Z,25.57
2018-08-12T09:32:29.832Z,25.72
2018-08-12T09:33:29.768Z,25.76
2018-08-12T09:34:29.669Z,26.17
2018-08-12T09:35:29.593Z,25.96
2018-08-12T09:36:29.508Z,26.24
2018-08-12T09:37:29.428Z,26.27
2018-08-12T09:38:29.469Z,26.50
2018-08-12T09:39:29.275Z,26.53
2018-08-12T09:40:29.191Z,26.57
2018-08-12T09:41:29.108Z,26.31
2018-08-12T09:42:29.027Z,26.53
2018-08-12T09:43:28.963Z,26.51
2018-08-12T09:44:28.868Z,26.61
2018-08-12T09:45:28.887Z,26.31
2018-08-12T09:46:28.703Z,25.16
2018-08-12T09:47:28.625Z,25.36
2018-08-12T09:48:28.562Z,25.49
2018-08-12T09:49:28.463Z,26.21
2018-08-12T09:50:28.385Z,26.35
2018-08-12T09:51:28.355Z,26.16
2018-08-12T09:52:28.336Z,25.31
2018-08-12T09:53:28.161Z,25.69
2018-08-12T09:54:28.061Z,26.31
2018-08-12T09:55:27.979Z,26.47
2018-08-12T09:56:27.905Z,26.86
2018-08-12T09:57:27.825Z,27.38
2018-08-12T09:58:27.770Z,27.99
2018-08-12T09:59:27.756Z,28.24
2018-08-12T10:00:27.666Z,28.30
2018-08-12T10:01:27.504Z,28.42
2018-08-12T10:02:27.421Z,28.39
2018-08-12T10:03:27.358Z,28.67
2018-08-12T10:04:27.265Z,28.76
2018-08-12T10:05:27.182Z,28.39
2018-08-12T10:06:27.101Z,27.77
2018-08-12T10:07:27.087Z,27.95
2018-08-12T10:08:26.979Z,27.96
2018-08-12T10:09:26.863Z,27.72
2018-08-12T10:10:26.790Z,27.05
2018-08-12T10:11:26.707Z,27.02
2018-08-12T10:12:26.626Z,27.05
2018-08-12T10:13:26.667Z,26.68
2018-08-12T10:14:26.469Z,26.24
2018-08-12T10:15:26.405Z,25.64
2018-08-12T10:16:26.313Z,26.47
2018-08-12T10:17:26.228Z,26.96
2018-08-12T10:18:26.166Z,27.63
2018-08-12T10:19:26.196Z,27.61
2018-08-12T10:20:25.991Z,28.28
2018-08-12T10:21:25.919Z,28.39
2018-08-12T10:22:25.831Z,28.55
2018-08-12T10:23:25.769Z,28.74
2018-08-12T10:24:25.675Z,28.91
2018-08-12T10:25:25.598Z,28.33
2018-08-12T10:26:25.516Z,28.09
2018-08-12T10:27:25.435Z,26.42
2018-08-12T10:28:25.373Z,25.69
2018-08-12T10:29:25.285Z,26.27
2018-08-12T10:30:25.204Z,26.84
2018-08-12T10:31:25.119Z,27.16
2018-08-12T10:32:25.046Z,27.31
2018-08-12T10:33:24.981Z,27.42
2018-08-12T10:34:24.887Z,27.96
2018-08-12T10:35:24.802Z,28.09
2018-08-12T10:36:24.724Z,28.39
2018-08-12T10:37:24.646Z,28.39
2018-08-12T10:38:24.615Z,28.03
2018-08-12T10:39:24.486Z,28.36
2018-08-12T10:40:24.406Z,28.25
2018-08-12T10:41:24.331Z,28.03
2018-08-12T10:42:24.249Z,27.55
2018-08-12T10:43:24.186Z,27.74
2018-08-12T10:44:24.161Z,27.99
2018-08-12T10:45:24.011Z,28.40
2018-08-12T10:46:23.936Z,28.94
2018-08-12T10:47:23.855Z,28.74
2018-08-12T10:48:23.790Z,28.65
2018-08-12T10:49:23.695Z,28.67
2018-08-12T10:50:23.615Z,28.64
2018-08-12T10:51:23.540Z,28.43
2018-08-12T10:52:23.460Z,28.40
2018-08-12T10:53:23.382Z,28.14
2018-08-12T10:54:23.318Z,28.09
2018-08-12T10:55:23.221Z,28.09
2018-08-12T10:56:23.143Z,28.09
2018-08-12T10:57:23.064Z,28.17
2018-08-12T10:58:22.987Z,28.20
2018-08-12T10:59:22.942Z,27.95
2018-08-12T11:00:22.834Z,27.66
2018-08-12T11:01:22.751Z,27.05
2018-08-12T11:02:22.686Z,26.16
2018-08-12T11:03:22.595Z,25.86
2018-08-12T11:04:22.527Z,25.22
2018-08-12T11:05:22.436Z,25.36
2018-08-12T11:06:22.352Z,25.64
2018-08-12T11:07:22.287Z,25.83
2018-08-12T11:08:22.196Z,26.51
2018-08-12T11:09:22.128Z,26.69
2018-08-12T11:10:22.041Z,27.09
2018-08-12T11:11:21.955Z,27.09
2018-08-12T11:12:21.925Z,27.48
2018-08-12T11:13:21.797Z,27.83
2018-08-12T11:14:21.728Z,28.08
2018-08-12T11:15:21.632Z,28.17
2018-08-12T11:16:21.552Z,28.27
2018-08-12T11:17:21.471Z,28.57
2018-08-12T11:18:21.392Z,28.67
2018-08-12T11:19:21.332Z,28.76
2018-08-12T11:20:21.265Z,28.61
2018-08-12T11:21:21.159Z,29.11
2018-08-12T11:22:21.073Z,28.64
2018-08-12T11:23:20.993Z,28.51
2018-08-12T11:24:20.930Z,28.57
2018-08-12T11:25:20.839Z,28.46
2018-08-12T11:26:20.753Z,28.67
2018-08-12T11:27:20.677Z,29.23
2018-08-12T11:28:20.596Z,28.69
2018-08-12T11:29:20.538Z,28.74
2018-08-12T11:30:20.448Z,28.76
2018-08-12T11:31:20.357Z,28.83
2018-08-12T11:32:20.281Z,29.25
2018-08-12T11:33:20.202Z,28.14
2018-08-12T11:34:20.139Z,28.02
2018-08-12T11:35:20.043Z,28.23
2018-08-12T11:36:20.065Z,28.09
2018-08-12T11:37:19.885Z,28.62
2018-08-12T11:38:19.804Z,28.72
2018-08-12T11:39:19.742Z,28.65
2018-08-12T11:40:19.646Z,27.99
2018-08-12T11:41:19.646Z,27.28
2018-08-12T11:42:19.491Z,27.35
2018-08-12T11:43:19.512Z,27.01
2018-08-12T11:44:19.347Z,26.68
2018-08-12T11:45:19.251Z,26.81
2018-08-12T11:46:19.178Z,27.01
2018-08-12T11:47:19.103Z,27.12
2018-08-12T11:48:19.015Z,26.71
2018-08-12T11:49:18.969Z,27.31
2018-08-12T11:50:18.955Z,27.58
2018-08-12T11:51:18.778Z,27.42
2018-08-12T11:52:18.702Z,27.09
2018-08-12T11:53:18.623Z,26.23
2018-08-12T11:54:18.555Z,25.78
2018-08-12T11:55:18.461Z,25.51
2018-08-12T11:56:18.381Z,25.36
2018-08-12T11:57:18.406Z,25.07
2018-08-12T11:58:18.220Z,25.08
2018-08-12T11:59:18.162Z,25.45
2018-08-12T12:00:18.062Z,26.31
2018-08-12T12:01:17.984Z,27.01
2018-08-12T12:02:17.954Z,27.72
2018-08-12T12:03:17.820Z,28.39
2018-08-12T12:04:17.889Z,28.85
2018-08-12T12:05:17.659Z,29.26
2018-08-12T12:06:17.582Z,29.67
2018-08-12T12:07:17.501Z,29.51
2018-08-12T12:08:17.420Z,29.49
2018-08-12T12:09:17.358Z,29.89
2018-08-12T12:10:17.265Z,29.92
2018-08-12T12:11:17.280Z,29.82
2018-08-12T12:12:17.102Z,28.42
2018-08-12T12:13:17.024Z,28.36
2018-08-12T12:14:16.958Z,28.50
2018-08-12T12:15:16.868Z,28.91
2018-08-12T12:16:16.786Z,28.55
2018-08-12T12:17:16.709Z,28.77
2018-08-12T12:18:16.627Z,29.02
2018-08-12T12:19:16.565Z,29.14
2018-08-12T12:20:16.471Z,28.58
2018-08-12T12:21:16.390Z,28.83
2018-08-12T12:22:16.312Z,28.79
2018-08-12T12:23:16.232Z,29.29
2018-08-12T12:24:16.177Z,29.36
2018-08-12T12:25:16.103Z,29.05
2018-08-12T12:26:15.997Z,29.42
2018-08-12T12:27:15.918Z,29.58
2018-08-12T12:28:15.840Z,29.69
2018-08-12T12:29:15.775Z,29.78
2018-08-12T12:30:15.683Z,29.76
2018-08-12T12:31:15.604Z,29.23
2018-08-12T12:32:15.525Z,29.82
2018-08-12T12:33:15.448Z,30.01
2018-08-12T12:34:15.381Z,29.76
2018-08-12T12:35:15.294Z,28.97
2018-08-12T12:36:15.214Z,29.18
2018-08-12T12:37:15.134Z,28.92
2018-08-12T12:38:15.057Z,28.18
2018-08-12T12:39:14.980Z,28.14
2018-08-12T12:40:14.917Z,28.32
2018-08-12T12:41:14.819Z,28.48
2018-08-12T12:42:14.741Z,28.94
2018-08-12T12:43:14.664Z,28.94
2018-08-12T12:44:14.604Z,29.30
2018-08-12T12:45:14.506Z,29.41
2018-08-12T12:46:14.426Z,29.23
2018-08-12T12:47:14.348Z,29.11
2018-08-12T12:48:14.285Z,29.41
2018-08-12T12:49:14.197Z,29.08
2018-08-12T12:50:14.224Z,28.87
2018-08-12T12:51:14.034Z,29.05